KPIE/PIE METAR and TAF weather

Enter ICAO airport designator
Station Type Date Time Source
KPIE METAR 2022/05/23 04:53 UTC NOAA

KPIE 230453Z AUTO 16003KT 10SM BKN032 OVC039 28/26 A3013 RMK AO2 SLP204 T02780256 403440228


Station Type Date Time Source
KPIE Decoded METAR 2022/05/23 04:53 UTC NOAA

ST PETERSBURG/CLEARWATER, FL, United States (KPIE) 27-55N 82-41W 4M
May 23, 2022 - 12:53 AM EDT / 2022.05.23 0453 UTC
Wind: from the SSE (160 degrees) at 3 MPH (3 KT):0
Visibility: 10 mile(s):0
Sky conditions: overcast
Temperature: 82.0 F (27.8 C)
Dew Point: 78.1 F (25.6 C)
Relative Humidity: 87%
Pressure (altimeter): 30.13 in. Hg (1020 hPa)
ob: KPIE 230453Z AUTO 16003KT 10SM BKN032 OVC039 28/26 A3013 RMK AO2 SLP204 T02780256 403440228
cycle: 5

Station Type Date Time Source
KPIE TAF 2022/05/24 12:34 UTC NOAA

TAF KPIE 241132Z 2412/2512 14008KT P6SM FEW020 BKN120 BKN200
FM241900 24009KT P6SM SCT040 BKN200
FM242200 28009KT P6SM SCT040 BKN200
FM250200 12006KT P6SM SCT200

Example: see airport list